Platte Woods, Missouri
Current Conditions -  °F | °C
As of 1:54 AM on Friday 24 Oct 2014 (Local Time) from KMKC Reporting Station
Haze Haze  
Wind Chill: 58°   Ceiling: Unl
Heat Index: 58°   Visibility: 3mi
Dew Point: 56°   Wind: 3mph
Humidity: 93%   Direction: 220°SW
Pressure: 30.08"   Gusts: NA
Location:  39.2125°N, 94.6296°W
Report Text: KMKC 240654Z 22003KT 3SM BR CLR 14/13 A3008 RMK AO2 SLP183 T01440133
Loading
Personal Weather Stations






























Interactive Weather Map
Tropical Storm Tracking
New forecast layout! Learn more

10-Day Weather Forecast

Advertisements
Track Severe Weather on mobile